Time;durP1;ratioP1;P1;durP2;ratioP2;P2;SDS_P1;SDS_P2;PMS_P1;PMS_P2;Temp;Humidity;BMP_temperature;BMP_pressure;BME280_temperature;BME280_humidity;BME280_pressure;Samples;Min_cycle;Max_cycle;Signal;HPM_P1;HPM_P2
2021/09/08 00:01:28;;;;;;;9.17;6.10;;;14.50;99.90;;;;;;485122;245;28878;-69
2021/09/08 00:03:29;;;;;;;8.00;6.80;;;14.40;99.90;;;;;;485148;245;28536;-69
2021/09/08 00:05:31;;;;;;;7.80;6.53;;;14.30;99.90;;;;;;485137;245;28929;-72
2021/09/08 00:07:32;;;;;;;7.90;6.90;;;14.10;99.90;;;;;;485142;245;28533;-70
2021/09/08 00:09:33;;;;;;;7.50;6.60;;;14.00;99.90;;;;;;485107;245;28576;-70
2021/09/08 00:11:34;;;;;;;9.40;7.27;;;13.90;99.90;;;;;;485110;245;30251;-71
2021/09/08 00:13:36;;;;;;;8.10;7.00;;;13.90;99.90;;;;;;485173;245;29331;-70
2021/09/08 00:15:37;;;;;;;7.80;6.53;;;13.80;99.90;;;;;;485141;245;29091;-70
2021/09/08 00:17:38;;;;;;;10.20;6.30;;;13.90;99.90;;;;;;485142;245;28476;-70
2021/09/08 00:19:39;;;;;;;7.10;6.23;;;13.90;99.90;;;;;;485120;245;28895;-72
2021/09/08 00:21:41;;;;;;;7.40;6.07;;;13.90;99.90;;;;;;485110;245;28434;-71
2021/09/08 00:23:42;;;;;;;8.10;6.60;;;13.90;99.90;;;;;;485136;245;28561;-70
2021/09/08 00:25:43;;;;;;;7.20;6.33;;;13.90;99.90;;;;;;485139;245;28566;-71
2021/09/08 00:27:44;;;;;;;8.97;6.70;;;13.90;99.90;;;;;;485135;245;28443;-70
2021/09/08 00:29:46;;;;;;;7.47;6.73;;;13.90;99.90;;;;;;485128;245;28363;-70
2021/09/08 00:31:47;;;;;;;7.10;6.40;;;13.90;99.90;;;;;;485133;245;28326;-70
2021/09/08 00:33:48;;;;;;;6.73;6.03;;;13.90;99.90;;;;;;485162;245;28565;-70
2021/09/08 00:35:50;;;;;;;7.67;6.83;;;13.90;99.90;;;;;;485138;245;28957;-70
2021/09/08 00:37:51;;;;;;;7.03;6.33;;;13.90;99.90;;;;;;485132;245;28679;-70
2021/09/08 00:39:52;;;;;;;6.93;6.23;;;14.00;99.90;;;;;;485128;245;28902;-70
2021/09/08 00:41:53;;;;;;;8.17;6.47;;;13.90;99.90;;;;;;485133;245;29290;-70
2021/09/08 00:43:55;;;;;;;7.33;6.53;;;13.90;99.90;;;;;;485148;245;28549;-70
2021/09/08 00:45:56;;;;;;;8.37;6.80;;;13.90;99.90;;;;;;485144;245;28573;-70
2021/09/08 00:47:57;;;;;;;7.20;6.40;;;13.80;99.90;;;;;;485141;245;28443;-70
2021/09/08 00:49:58;;;;;;;7.53;6.80;;;13.80;99.90;;;;;;485094;245;28601;-71
2021/09/08 00:52:00;;;;;;;9.27;7.10;;;13.80;99.90;;;;;;485112;245;28279;-71
2021/09/08 00:54:01;;;;;;;7.50;6.23;;;13.80;99.90;;;;;;485127;245;28637;-70
2021/09/08 00:56:03;;;;;;;6.93;6.07;;;13.80;99.90;;;;;;485141;245;28582;-70
2021/09/08 00:58:03;;;;;;;7.97;7.10;;;13.80;99.90;;;;;;485117;245;28376;-70
2021/09/08 01:00:05;;;;;;;7.20;6.47;;;13.80;99.90;;;;;;485112;245;29009;-70
2021/09/08 01:02:06;;;;;;;8.17;6.40;;;13.80;99.90;;;;;;485109;245;28910;-69
2021/09/08 01:04:07;;;;;;;7.70;6.90;;;13.70;99.90;;;;;;485127;245;29052;-71
2021/09/08 01:06:08;;;;;;;8.50;6.80;;;13.70;99.90;;;;;;485140;245;28996;-70
2021/09/08 01:08:10;;;;;;;7.53;6.47;;;13.70;99.90;;;;;;485111;245;28434;-70
2021/09/08 01:10:11;;;;;;;6.73;6.03;;;13.70;99.90;;;;;;485069;245;28549;-70
2021/09/08 01:12:12;;;;;;;7.37;6.57;;;13.70;99.90;;;;;;485092;245;28375;-72
2021/09/08 01:14:13;;;;;;;8.20;6.63;;;13.70;99.90;;;;;;485109;245;28439;-72
2021/09/08 01:16:15;;;;;;;7.37;6.30;;;13.70;99.90;;;;;;485116;245;28243;-69
2021/09/08 01:18:16;;;;;;;7.03;6.20;;;13.70;99.90;;;;;;485019;245;28191;-70
2021/09/08 01:20:17;;;;;;;6.77;6.10;;;13.70;99.90;;;;;;485095;245;28255;-70
2021/09/08 01:22:18;;;;;;;8.07;7.00;;;13.70;99.90;;;;;;485097;245;28290;-70
2021/09/08 01:24:20;;;;;;;7.87;6.73;;;13.70;99.90;;;;;;485111;245;28674;-70
2021/09/08 01:26:21;;;;;;;9.17;6.77;;;13.60;99.90;;;;;;485103;245;28755;-71
2021/09/08 01:28:22;;;;;;;7.83;7.03;;;13.60;99.90;;;;;;485126;245;28805;-70
2021/09/08 01:30:23;;;;;;;7.37;6.57;;;13.50;99.90;;;;;;485128;245;28944;-71
2021/09/08 01:32:25;;;;;;;10.13;5.90;;;13.40;99.90;;;;;;485168;245;28274;-70
2021/09/08 01:34:26;;;;;;;6.63;5.93;;;13.40;99.90;;;;;;485137;245;28437;-71
2021/09/08 01:36:27;;;;;;;7.00;6.30;;;13.40;99.90;;;;;;485079;245;28251;-70
2021/09/08 01:38:28;;;;;;;9.00;7.03;;;13.40;99.90;;;;;;485116;245;28260;-70
2021/09/08 01:40:30;;;;;;;7.77;6.57;;;13.40;99.90;;;;;;485114;245;28351;-69
2021/09/08 01:42:31;;;;;;;7.03;6.00;;;13.40;99.90;;;;;;485146;245;28372;-70
2021/09/08 01:44:32;;;;;;;7.30;6.40;;;13.40;99.90;;;;;;485129;245;28756;-70
2021/09/08 01:46:33;;;;;;;7.97;6.53;;;13.40;99.90;;;;;;485101;245;28496;-70
2021/09/08 01:48:35;;;;;;;7.70;6.90;;;13.30;99.90;;;;;;485103;245;28940;-71
2021/09/08 01:50:36;;;;;;;7.43;6.30;;;13.30;99.90;;;;;;485078;245;28965;-70
2021/09/08 01:52:40;;;;;;;7.37;6.57;;;13.30;99.90;;;;;;485148;245;28852;-70
2021/09/08 01:54:41;;;;;;;7.03;6.30;;;13.30;99.90;;;;;;485166;245;28274;-70
2021/09/08 01:56:42;;;;;;;6.97;6.00;;;13.30;99.90;;;;;;485116;245;28397;-70
2021/09/08 01:58:44;;;;;;;9.13;7.00;;;13.30;99.90;;;;;;485120;245;28256;-70
2021/09/08 02:00:46;;;;;;;8.10;7.20;;;;;;;;;;485108;245;28387;-70
2021/09/08 02:02:47;;;;;;;7.50;6.30;;;13.20;99.90;;;;;;485128;245;26595;-70
2021/09/08 02:04:49;;;;;;;7.53;6.73;;;13.20;99.90;;;;;;485119;245;28404;-72
2021/09/08 02:06:50;;;;;;;8.30;7.50;;;13.20;99.90;;;;;;485096;245;28266;-71
2021/09/08 02:08:51;;;;;;;10.13;7.03;;;13.20;99.90;;;;;;485132;245;28445;-70
2021/09/08 02:10:52;;;;;;;7.30;6.60;;;13.20;99.90;;;;;;485111;245;28408;-71
2021/09/08 02:12:54;;;;;;;7.87;6.97;;;13.20;99.90;;;;;;485138;245;28468;-71
2021/09/08 02:14:55;;;;;;;7.40;6.67;;;13.30;99.90;;;;;;485109;245;28667;-70
2021/09/08 02:16:56;;;;;;;9.33;6.87;;;13.40;99.90;;;;;;485115;245;29343;-70
2021/09/08 02:18:57;;;;;;;7.50;6.30;;;13.40;99.90;;;;;;485114;245;29058;-70
2021/09/08 02:20:59;;;;;;;7.13;6.43;;;13.50;99.90;;;;;;485113;245;28351;-71
2021/09/08 02:23:00;;;;;;;7.60;6.30;;;13.50;99.90;;;;;;485143;245;28465;-70
2021/09/08 02:25:01;;;;;;;7.57;6.80;;;13.40;99.90;;;;;;485106;245;28215;-70
2021/09/08 02:27:02;;;;;;;7.50;6.60;;;13.40;99.90;;;;;;485116;245;28231;-70
2021/09/08 02:29:04;;;;;;;8.63;6.57;;;13.30;99.90;;;;;;485102;245;28338;-70
2021/09/08 02:31:05;;;;;;;8.40;6.90;;;13.30;99.90;;;;;;485120;245;28455;-70
2021/09/08 02:33:06;;;;;;;8.67;6.80;;;13.30;99.90;;;;;;485124;245;28463;-70
2021/09/08 02:35:07;;;;;;;7.20;6.47;;;13.40;99.90;;;;;;485100;245;28219;-70
2021/09/08 02:37:09;;;;;;;7.63;6.83;;;13.30;99.90;;;;;;485120;245;28258;-70
2021/09/08 02:39:10;;;;;;;8.37;6.70;;;13.20;99.90;;;;;;485102;245;29252;-70
2021/09/08 02:41:11;;;;;;;7.50;6.50;;;13.30;99.90;;;;;;485128;245;28678;-70
2021/09/08 02:43:12;;;;;;;7.60;6.43;;;13.20;99.90;;;;;;485142;245;28801;-70
2021/09/08 02:45:14;;;;;;;6.97;6.27;;;13.30;99.90;;;;;;485122;245;28731;-69
2021/09/08 02:47:16;;;;;;;7.50;6.33;;;13.30;99.90;;;;;;485145;245;28311;-71
2021/09/08 02:49:16;;;;;;;7.60;6.30;;;13.30;99.90;;;;;;485042;245;28408;-69
2021/09/08 02:51:17;;;;;;;7.53;6.47;;;13.40;99.90;;;;;;484990;245;28182;-70
2021/09/08 02:53:19;;;;;;;8.07;6.20;;;13.50;99.90;;;;;;484952;245;28355;-69
2021/09/08 02:55:20;;;;;;;7.03;6.20;;;13.50;99.90;;;;;;484904;245;28131;-70
2021/09/08 02:57:21;;;;;;;8.47;6.40;;;13.40;99.90;;;;;;484903;245;28277;-70
2021/09/08 02:59:22;;;;;;;7.70;6.90;;;13.30;99.90;;;;;;485038;245;28741;-70
2021/09/08 03:01:24;;;;;;;6.90;6.20;;;13.20;99.90;;;;;;485141;245;28350;-69
2021/09/08 03:03:25;;;;;;;7.03;6.33;;;13.10;99.90;;;;;;485131;245;28339;-70
2021/09/08 03:05:26;;;;;;;6.83;6.10;;;13.10;99.90;;;;;;485119;245;29312;-71
2021/09/08 03:07:27;;;;;;;7.80;6.60;;;13.10;99.90;;;;;;485123;245;28852;-70
2021/09/08 03:09:29;;;;;;;7.73;6.77;;;13.00;99.90;;;;;;485140;245;28849;-71
2021/09/08 03:11:31;;;;;;;8.90;7.13;;;;;;;;;;485156;245;28220;-70
2021/09/08 03:13:32;;;;;;;8.17;6.83;;;13.10;99.90;;;;;;485127;245;26500;-70
2021/09/08 03:15:34;;;;;;;8.03;7.00;;;13.20;99.90;;;;;;485022;245;28586;-70
2021/09/08 03:17:35;;;;;;;7.87;7.00;;;13.40;99.90;;;;;;485125;245;29204;-70
2021/09/08 03:19:36;;;;;;;8.20;6.40;;;13.50;99.90;;;;;;485088;245;29008;-70
2021/09/08 03:21:37;;;;;;;8.30;7.30;;;13.60;99.90;;;;;;485132;245;28718;-70
2021/09/08 03:23:39;;;;;;;9.70;7.60;;;13.80;99.90;;;;;;485123;245;28351;-70
2021/09/08 03:25:40;;;;;;;8.50;6.70;;;13.80;99.90;;;;;;485085;245;28472;-69
2021/09/08 03:27:41;;;;;;;7.37;6.57;;;13.60;99.90;;;;;;485101;245;28496;-71
2021/09/08 03:29:42;;;;;;;7.77;6.73;;;13.40;99.90;;;;;;485115;245;28522;-71
2021/09/08 03:31:44;;;;;;;8.33;7.03;;;13.10;99.90;;;;;;485108;245;28912;-70
2021/09/08 03:33:45;;;;;;;7.50;6.70;;;12.90;99.90;;;;;;485081;245;28857;-70
2021/09/08 03:35:48;;;;;;;7.67;6.30;;;;;;;;;;485089;245;28355;-70
2021/09/08 03:37:50;;;;;;;7.40;6.67;;;;;;;;;;485143;245;26994;-70
2021/09/08 03:39:56;;;;;;;8.20;6.50;;;12.60;99.90;;;;;;485120;245;26605;-70
2021/09/08 03:41:55;;;;;;;9.90;6.50;;;12.60;99.90;;;;;;485006;245;28712;-70
2021/09/08 03:43:57;;;;;;;8.27;6.40;;;12.50;99.90;;;;;;485103;245;28765;-70
2021/09/08 03:45:58;;;;;;;7.60;6.63;;;12.50;99.90;;;;;;485132;245;28832;-70
2021/09/08 03:47:59;;;;;;;7.27;6.03;;;12.60;99.90;;;;;;485114;245;28374;-72
2021/09/08 03:50:00;;;;;;;7.30;6.37;;;12.60;99.90;;;;;;485097;245;28234;-70
2021/09/08 03:52:02;;;;;;;6.93;6.23;;;12.60;99.90;;;;;;485130;245;28353;-70
2021/09/08 03:54:03;;;;;;;7.10;6.40;;;12.60;99.90;;;;;;485114;245;28560;-70
2021/09/08 03:56:04;;;;;;;9.30;6.87;;;12.80;99.90;;;;;;485140;245;28366;-71
2021/09/08 03:58:05;;;;;;;7.70;6.40;;;12.90;99.90;;;;;;485168;245;28852;-70
2021/09/08 04:00:07;;;;;;;6.70;6.00;;;13.00;99.90;;;;;;485104;245;28248;-70
2021/09/08 04:02:08;;;;;;;7.13;6.30;;;12.90;99.90;;;;;;485110;245;28194;-70
2021/09/08 04:04:09;;;;;;;7.90;6.43;;;12.80;99.90;;;;;;485074;245;28746;-70
2021/09/08 04:06:10;;;;;;;9.10;6.77;;;12.70;99.90;;;;;;485152;245;28564;-71
2021/09/08 04:08:12;;;;;;;8.13;6.80;;;12.70;99.90;;;;;;485129;245;28749;-70
2021/09/08 04:10:14;;;;;;;7.10;6.13;;;;;;;;;;485107;245;29373;-70
2021/09/08 04:12:15;;;;;;;6.63;5.93;;;12.80;99.90;;;;;;485115;245;27072;-70
2021/09/08 04:14:16;;;;;;;6.47;5.87;;;13.10;99.90;;;;;;485154;245;28919;-70
2021/09/08 04:16:18;;;;;;;8.50;6.37;;;13.20;99.90;;;;;;485144;245;29311;-70
2021/09/08 04:18:19;;;;;;;6.83;5.93;;;13.30;99.90;;;;;;485124;245;29373;-70
2021/09/08 04:20:20;;;;;;;6.63;5.93;;;13.40;99.90;;;;;;485105;245;28874;-72
2021/09/08 04:22:21;;;;;;;7.53;5.87;;;13.40;99.90;;;;;;485134;245;28372;-70
2021/09/08 04:24:24;;;;;;;7.70;6.83;;;;;;;;;;485170;245;28116;-70
2021/09/08 04:26:25;;;;;;;7.90;7.10;;;13.40;99.90;;;;;;485112;245;26696;-71
2021/09/08 04:28:26;;;;;;;7.27;6.57;;;13.20;99.90;;;;;;485135;245;29297;-70
2021/09/08 04:30:28;;;;;;;8.23;7.10;;;12.90;99.90;;;;;;485123;245;28929;-70
2021/09/08 04:32:29;;;;;;;6.97;6.07;;;12.70;99.90;;;;;;485145;245;29041;-70
2021/09/08 04:34:30;;;;;;;6.90;6.30;;;12.70;99.90;;;;;;485167;245;28380;-70
2021/09/08 04:36:31;;;;;;;7.37;6.37;;;12.60;99.90;;;;;;485171;245;28376;-70
2021/09/08 04:38:33;;;;;;;8.20;7.40;;;12.60;99.90;;;;;;485146;245;28640;-70
2021/09/08 04:40:34;;;;;;;6.47;5.80;;;12.70;99.90;;;;;;485099;245;28893;-70
2021/09/08 04:42:36;;;;;;;7.63;6.77;;;;;;;;;;485164;245;28462;-69
2021/09/08 04:44:38;;;;;;;7.50;6.80;;;12.90;99.90;;;;;;485060;245;27596;-70
2021/09/08 04:46:39;;;;;;;8.03;6.83;;;13.10;99.90;;;;;;485090;245;28269;-70
2021/09/08 04:48:40;;;;;;;7.80;7.00;;;13.10;99.90;;;;;;485115;245;28329;-70
2021/09/08 04:50:41;;;;;;;8.10;7.20;;;13.20;99.90;;;;;;485139;245;28123;-69
2021/09/08 04:52:43;;;;;;;7.30;6.57;;;13.20;99.90;;;;;;485129;245;28241;-69
2021/09/08 04:54:44;;;;;;;10.37;7.40;;;13.30;99.90;;;;;;485128;245;28254;-71
2021/09/08 04:56:45;;;;;;;8.03;7.23;;;13.40;99.90;;;;;;485122;245;28251;-69
2021/09/08 04:58:46;;;;;;;7.57;6.80;;;13.40;99.90;;;;;;485117;245;28394;-70
2021/09/08 05:00:48;;;;;;;7.27;6.57;;;13.40;99.90;;;;;;485143;245;28325;-71
2021/09/08 05:02:49;;;;;;;7.97;7.17;;;13.50;99.90;;;;;;485106;245;28777;-70
2021/09/08 05:04:50;;;;;;;8.07;7.03;;;13.50;99.90;;;;;;485121;245;28881;-70
2021/09/08 05:06:51;;;;;;;7.70;6.93;;;13.50;99.90;;;;;;485146;245;28589;-70
2021/09/08 05:08:53;;;;;;;7.93;7.00;;;13.50;99.90;;;;;;485141;245;28258;-70
2021/09/08 05:10:54;;;;;;;8.67;7.23;;;13.50;99.90;;;;;;485127;245;28260;-70
2021/09/08 05:12:55;;;;;;;8.07;7.27;;;13.40;99.90;;;;;;485133;245;28434;-70
2021/09/08 05:14:56;;;;;;;8.87;7.93;;;13.50;99.90;;;;;;485126;245;28353;-71
2021/09/08 05:16:58;;;;;;;8.60;7.30;;;13.50;99.90;;;;;;485112;245;28110;-70
2021/09/08 05:18:59;;;;;;;8.30;6.83;;;13.50;99.90;;;;;;485133;245;28569;-70
2021/09/08 05:21:00;;;;;;;9.03;7.30;;;13.50;99.90;;;;;;485134;245;28671;-71
2021/09/08 05:23:01;;;;;;;8.27;7.17;;;13.60;99.90;;;;;;485143;245;28550;-69
2021/09/08 05:25:03;;;;;;;8.67;7.73;;;13.70;99.90;;;;;;485139;245;28271;-70
2021/09/08 05:27:04;;;;;;;8.07;7.33;;;13.70;99.90;;;;;;485132;245;28777;-70
2021/09/08 05:29:06;;;;;;;7.80;6.97;;;13.70;99.90;;;;;;485147;245;28756;-70
2021/09/08 05:31:06;;;;;;;8.73;6.60;;;13.70;99.90;;;;;;485074;245;28770;-70
2021/09/08 05:33:08;;;;;;;8.33;6.90;;;13.80;99.90;;;;;;485150;245;28347;-69
2021/09/08 05:35:12;;;;;;;8.20;7.43;;;13.90;99.90;;;;;;485120;245;28470;-70
2021/09/08 05:37:10;;;;;;;8.57;7.20;;;13.90;99.90;;;;;;485014;245;28558;-71
2021/09/08 05:39:11;;;;;;;8.07;7.13;;;13.90;99.90;;;;;;485137;245;28350;-69
2021/09/08 05:41:13;;;;;;;7.57;6.70;;;14.00;99.90;;;;;;485142;245;28430;-71
2021/09/08 05:43:14;;;;;;;7.97;7.17;;;14.00;99.90;;;;;;485106;245;28308;-72
2021/09/08 05:45:15;;;;;;;7.43;6.63;;;14.00;99.90;;;;;;485108;245;28274;-71
2021/09/08 05:47:18;;;;;;;10.10;7.50;;;14.00;99.90;;;;;;485090;245;28303;-71
2021/09/08 05:49:18;;;;;;;8.73;7.27;;;14.00;99.90;;;;;;485078;245;28329;-69
2021/09/08 05:51:19;;;;;;;9.00;7.50;;;13.90;99.90;;;;;;485137;245;28795;-71
2021/09/08 05:53:20;;;;;;;7.10;6.40;;;13.80;99.90;;;;;;485126;245;29170;-71
2021/09/08 05:55:21;;;;;;;7.60;6.90;;;13.80;99.90;;;;;;485110;245;28746;-71
2021/09/08 05:57:23;;;;;;;7.23;6.43;;;14.00;99.90;;;;;;485096;245;28250;-71
2021/09/08 05:59:24;;;;;;;8.20;7.37;;;13.90;99.90;;;;;;485132;245;28196;-72
2021/09/08 06:01:25;;;;;;;9.63;8.13;;;14.10;99.90;;;;;;485103;245;28317;-71
2021/09/08 06:03:26;;;;;;;8.50;7.57;;;14.30;99.90;;;;;;485117;245;28214;-72
2021/09/08 06:05:28;;;;;;;9.43;7.80;;;14.40;99.90;;;;;;485092;245;28378;-71
2021/09/08 06:07:29;;;;;;;10.40;8.73;;;14.50;99.90;;;;;;485108;245;28306;-69
2021/09/08 06:09:30;;;;;;;8.77;7.53;;;14.60;99.90;;;;;;485135;245;28384;-69
2021/09/08 06:11:31;;;;;;;8.43;7.50;;;14.60;99.90;;;;;;485136;245;28486;-69
2021/09/08 06:13:33;;;;;;;9.97;7.63;;;14.60;99.90;;;;;;485110;245;28904;-69
2021/09/08 06:15:34;;;;;;;11.00;8.07;;;14.60;99.90;;;;;;485080;245;29356;-69
2021/09/08 06:17:36;;;;;;;9.43;8.50;;;14.80;99.90;;;;;;485153;245;29155;-69
2021/09/08 06:19:36;;;;;;;8.50;7.33;;;14.90;99.90;;;;;;485077;245;29378;-72
2021/09/08 06:21:38;;;;;;;10.10;8.50;;;14.90;99.90;;;;;;485125;245;28606;-71
2021/09/08 06:23:39;;;;;;;10.67;9.40;;;15.10;99.90;;;;;;485094;245;28544;-72
2021/09/08 06:25:40;;;;;;;9.37;7.87;;;15.20;99.90;;;;;;485095;245;28476;-71
2021/09/08 06:27:41;;;;;;;9.87;8.87;;;15.20;99.90;;;;;;485115;245;28900;-72
2021/09/08 06:29:43;;;;;;;9.67;8.37;;;15.30;99.90;;;;;;485115;245;28565;-71
2021/09/08 06:31:44;;;;;;;12.70;9.50;;;15.30;99.90;;;;;;485109;245;29025;-71
2021/09/08 06:33:45;;;;;;;12.03;9.67;;;15.30;99.90;;;;;;485107;245;28546;-71
2021/09/08 06:35:46;;;;;;;10.43;9.33;;;15.40;99.90;;;;;;485108;245;29446;-70
2021/09/08 06:37:48;;;;;;;11.20;9.80;;;15.50;99.90;;;;;;485114;245;29471;-71
2021/09/08 06:39:49;;;;;;;11.20;9.47;;;15.70;99.90;;;;;;485121;245;29262;-70
2021/09/08 06:41:51;;;;;;;11.60;10.20;;;15.90;99.90;;;;;;490477;241;28736;-70
2021/09/08 06:43:52;;;;;;;10.07;8.93;;;15.90;99.90;;;;;;493050;240;28779;-72
2021/09/08 06:45:53;;;;;;;10.07;8.57;;;16.00;99.90;;;;;;492095;241;29193;-72
2021/09/08 06:47:54;;;;;;;11.67;9.63;;;15.90;99.90;;;;;;483810;245;29343;-72
2021/09/08 06:49:55;;;;;;;10.07;8.73;;;16.00;99.90;;;;;;483399;246;29157;-72
2021/09/08 06:51:57;;;;;;;10.97;9.50;;;16.10;99.90;;;;;;483401;245;28959;-69
2021/09/08 06:53:58;;;;;;;17.53;9.87;;;16.00;99.90;;;;;;483426;245;28790;-69
2021/09/08 06:55:59;;;;;;;9.90;8.53;;;16.20;99.90;;;;;;483391;245;28734;-71
2021/09/08 06:58:00;;;;;;;10.37;8.70;;;16.20;99.90;;;;;;483459;245;28749;-69
2021/09/08 07:00:02;;;;;;;12.10;10.40;;;16.40;99.90;;;;;;483385;246;28832;-72
2021/09/08 07:02:03;;;;;;;10.87;9.40;;;16.50;99.90;;;;;;483407;245;28847;-72
2021/09/08 07:04:04;;;;;;;13.90;10.10;;;16.50;99.90;;;;;;483394;245;29366;-71
2021/09/08 07:06:05;;;;;;;12.37;9.87;;;16.60;99.90;;;;;;483415;245;29327;-71
2021/09/08 07:08:09;;;;;;;11.37;9.93;;;16.80;99.90;;;;;;483403;245;28797;-69
2021/09/08 07:10:08;;;;;;;13.30;11.00;;;16.80;99.90;;;;;;483233;246;28704;-69
2021/09/08 07:12:10;;;;;;;12.43;9.93;;;16.80;99.90;;;;;;483400;245;28891;-69
2021/09/08 07:14:10;;;;;;;11.80;10.60;;;16.90;99.90;;;;;;483332;246;28728;-72
2021/09/08 07:16:12;;;;;;;12.90;9.83;;;17.10;99.90;;;;;;483395;245;28795;-72
2021/09/08 07:18:13;;;;;;;11.37;9.57;;;17.00;99.90;;;;;;483390;245;28830;-71
2021/09/08 07:20:14;;;;;;;11.90;9.40;;;17.10;99.90;;;;;;483376;245;29161;-71
2021/09/08 07:22:15;;;;;;;13.43;10.10;;;17.00;99.90;;;;;;483383;245;29320;-72
2021/09/08 07:24:17;;;;;;;12.33;10.10;;;17.10;99.90;;;;;;483394;246;28838;-71
2021/09/08 07:26:18;;;;;;;10.87;9.23;;;17.20;99.90;;;;;;483413;245;28818;-71
2021/09/08 07:28:19;;;;;;;13.80;10.10;;;17.10;99.90;;;;;;483387;245;28831;-72
2021/09/08 07:30:20;;;;;;;12.30;10.33;;;17.30;99.90;;;;;;483387;246;28837;-72
2021/09/08 07:32:22;;;;;;;12.03;10.70;;;17.50;99.90;;;;;;483389;245;28840;-71
2021/09/08 07:34:23;;;;;;;11.83;10.00;;;17.60;99.90;;;;;;483425;245;28824;-71
2021/09/08 07:36:24;;;;;;;10.07;9.07;;;17.60;99.90;;;;;;483409;245;29160;-71
2021/09/08 07:38:26;;;;;;;13.30;10.10;;;17.60;99.90;;;;;;483407;246;29413;-72
2021/09/08 07:40:27;;;;;;;12.00;9.93;;;17.60;99.90;;;;;;483364;245;28792;-71
2021/09/08 07:42:28;;;;;;;13.37;10.60;;;17.80;99.90;;;;;;483407;245;28854;-72
2021/09/08 07:44:29;;;;;;;10.87;9.23;;;17.80;99.90;;;;;;483402;245;29091;-72
2021/09/08 07:46:31;;;;;;;13.07;9.63;;;17.90;99.90;;;;;;483386;245;28811;-71
2021/09/08 07:48:32;;;;;;;11.53;9.60;;;17.80;99.90;;;;;;483398;245;28938;-71
2021/09/08 07:50:33;;;;;;;11.80;9.20;;;17.70;99.90;;;;;;483404;245;29239;-70
2021/09/08 07:52:34;;;;;;;10.70;9.20;;;17.90;99.90;;;;;;483406;245;29325;-71
2021/09/08 07:54:36;;;;;;;15.03;9.60;;;18.10;99.90;;;;;;483322;246;29327;-71
2021/09/08 07:56:37;;;;;;;12.13;9.70;;;18.10;99.90;;;;;;483403;246;28766;-71
2021/09/08 07:58:38;;;;;;;10.73;8.80;;;18.20;99.90;;;;;;483379;245;28733;-71
2021/09/08 08:00:39;;;;;;;11.13;9.27;;;18.10;99.90;;;;;;483419;245;28843;-71
2021/09/08 08:02:41;;;;;;;10.67;9.57;;;18.00;99.90;;;;;;483400;245;28729;-71
2021/09/08 08:04:42;;;;;;;10.43;9.03;;;18.20;99.90;;;;;;483434;245;29193;-71
2021/09/08 08:06:43;;;;;;;9.97;8.57;;;18.40;99.90;;;;;;483411;245;28725;-69
2021/09/08 08:08:44;;;;;;;11.80;9.70;;;18.50;99.90;;;;;;483423;246;28738;-69
2021/09/08 08:10:46;;;;;;;11.80;8.43;;;18.50;99.90;;;;;;483405;245;29253;-69
2021/09/08 08:12:47;;;;;;;12.20;10.17;;;18.50;99.90;;;;;;483416;245;29282;-69
2021/09/08 08:14:48;;;;;;;13.33;9.47;;;18.50;99.90;;;;;;483421;245;28799;-71
2021/09/08 08:16:51;;;;;;;14.03;9.77;;;18.50;99.90;;;;;;483413;246;28801;-71
2021/09/08 08:18:51;;;;;;;9.70;8.70;;;18.60;99.90;;;;;;483353;245;28817;-69
2021/09/08 08:20:52;;;;;;;9.83;8.80;;;18.60;99.90;;;;;;483386;245;28689;-69
2021/09/08 08:22:53;;;;;;;10.97;9.87;;;18.60;99.90;;;;;;483407;245;28715;-71
2021/09/08 08:24:55;;;;;;;13.40;10.70;;;18.80;99.90;;;;;;483429;246;28824;-72
2021/09/08 08:26:58;;;;;;;12.00;9.67;;;18.90;99.90;;;;;;483398;245;28675;-72
2021/09/08 08:28:57;;;;;;;11.77;9.10;;;18.80;99.90;;;;;;483291;245;29347;-72
2021/09/08 08:30:59;;;;;;;10.93;8.80;;;18.70;99.90;;;;;;483390;245;30014;-72
2021/09/08 08:32:59;;;;;;;10.00;8.93;;;18.80;99.90;;;;;;483414;246;28784;-71
2021/09/08 08:35:01;;;;;;;11.43;9.37;;;19.00;99.90;;;;;;483425;245;28732;-71
2021/09/08 08:37:02;;;;;;;10.53;9.30;;;19.10;99.90;;;;;;483405;245;28832;-72
2021/09/08 08:39:03;;;;;;;11.20;9.00;;;19.10;99.90;;;;;;483390;245;28813;-72
2021/09/08 08:41:04;;;;;;;10.83;8.47;;;19.20;99.90;;;;;;483385;245;28843;-71
2021/09/08 08:43:06;;;;;;;10.77;8.80;;;19.20;99.90;;;;;;483427;245;28693;-70
2021/09/08 08:45:07;;;;;;;11.20;9.73;;;19.40;99.90;;;;;;483448;245;29356;-69
2021/09/08 08:47:08;;;;;;;10.93;9.47;;;19.50;99.90;;;;;;483432;245;29168;-69
2021/09/08 08:49:09;;;;;;;11.37;8.13;;;19.50;99.90;;;;;;483410;245;29458;-70
2021/09/08 08:51:11;;;;;;;10.03;8.20;;;19.30;99.90;;;;;;483432;245;28827;-69
2021/09/08 08:53:12;;;;;;;14.43;9.37;;;19.40;99.90;;;;;;483437;245;28784;-73
2021/09/08 08:55:13;;;;;;;9.67;7.83;;;19.60;99.90;;;;;;483434;245;28899;-71
2021/09/08 08:57:15;;;;;;;13.33;9.60;;;19.50;99.90;;;;;;483403;245;28706;-69
2021/09/08 08:59:16;;;;;;;14.60;9.07;;;19.50;99.90;;;;;;483378;245;28761;-71
2021/09/08 09:01:17;;;;;;;10.73;8.57;;;19.60;99.90;;;;;;483422;245;29086;-71
2021/09/08 09:03:18;;;;;;;9.97;8.67;;;19.50;99.90;;;;;;483434;245;28881;-71
2021/09/08 09:05:19;;;;;;;10.13;8.20;;;19.50;99.90;;;;;;483408;245;29321;-71
2021/09/08 09:07:21;;;;;;;10.13;8.37;;;19.40;99.90;;;;;;483216;246;29230;-71
2021/09/08 09:09:22;;;;;;;11.73;8.50;;;19.50;99.90;;;;;;483134;246;28951;-71
2021/09/08 09:11:23;;;;;;;9.80;8.63;;;19.90;99.90;;;;;;483355;245;28800;-71
2021/09/08 09:13:24;;;;;;;10.80;9.13;;;19.90;99.90;;;;;;483439;245;28686;-71
2021/09/08 09:15:26;;;;;;;9.23;8.07;;;19.90;99.90;;;;;;483441;245;28737;-71
2021/09/08 09:17:27;;;;;;;9.53;8.50;;;19.90;99.90;;;;;;483436;245;28779;-71
2021/09/08 09:19:28;;;;;;;10.67;8.03;;;19.90;99.90;;;;;;483430;245;28756;-72
2021/09/08 09:21:29;;;;;;;9.40;8.40;;;19.90;99.90;;;;;;483442;245;28724;-71
2021/09/08 09:23:31;;;;;;;10.17;8.47;;;19.90;99.90;;;;;;483422;245;28746;-71
2021/09/08 09:25:36;;;;;;;10.03;8.77;;;20.10;99.90;;;;;;483371;245;29327;-72
2021/09/08 09:27:34;;;;;;;8.00;6.90;;;20.30;99.90;;;;;;483159;246;29263;-71
2021/09/08 09:29:35;;;;;;;9.17;8.20;;;20.20;99.90;;;;;;483409;245;29222;-72
2021/09/08 09:31:36;;;;;;;10.93;8.20;;;20.40;99.90;;;;;;483338;245;28828;-69
2021/09/08 09:33:37;;;;;;;9.90;7.50;;;20.40;99.90;;;;;;483395;245;28816;-70
2021/09/08 09:35:38;;;;;;;8.33;7.53;;;20.40;99.90;;;;;;483383;246;28734;-70
2021/09/08 09:37:39;;;;;;;9.67;8.33;;;20.50;99.90;;;;;;483385;245;28700;-69
2021/09/08 09:39:41;;;;;;;8.10;7.20;;;20.60;99.90;;;;;;483380;246;28818;-73
2021/09/08 09:41:42;;;;;;;10.93;7.77;;;20.60;99.90;;;;;;483417;246;28910;-70
2021/09/08 09:43:43;;;;;;;14.17;8.37;;;20.80;99.90;;;;;;483461;246;28768;-70
2021/09/08 09:45:45;;;;;;;8.43;7.50;;;20.60;99.90;;;;;;483454;245;29205;-70
2021/09/08 09:47:46;;;;;;;11.13;8.77;;;20.70;99.90;;;;;;483409;245;30362;-69
2021/09/08 09:49:47;;;;;;;8.70;7.40;;;20.80;99.90;;;;;;483434;245;29252;-71
2021/09/08 09:51:48;;;;;;;10.70;7.33;;;20.80;99.90;;;;;;483447;245;29271;-70
2021/09/08 09:53:50;;;;;;;8.63;7.60;;;20.90;99.90;;;;;;483436;245;28789;-70
2021/09/08 09:55:51;;;;;;;9.00;7.30;;;21.10;99.90;;;;;;483416;245;28857;-70
2021/09/08 09:57:53;;;;;;;14.20;8.00;;;21.00;99.90;;;;;;483420;245;28692;-70
2021/09/08 09:59:53;;;;;;;8.37;6.90;;;21.10;99.90;;;;;;483438;246;28710;-71
2021/09/08 10:01:55;;;;;;;8.37;7.50;;;21.30;99.90;;;;;;483441;245;28720;-71
2021/09/08 10:03:56;;;;;;;11.13;8.00;;;21.10;99.90;;;;;;483436;245;28879;-71
2021/09/08 10:05:57;;;;;;;8.80;7.30;;;20.90;99.90;;;;;;483432;245;28836;-71
2021/09/08 10:07:58;;;;;;;8.60;7.33;;;20.90;99.90;;;;;;484052;245;30024;-71
2021/09/08 10:10:00;;;;;;;8.30;7.50;;;21.00;99.90;;;;;;485128;245;29351;-71
2021/09/08 10:12:01;;;;;;;7.90;7.10;;;21.00;99.90;;;;;;482207;245;29356;-72
2021/09/08 10:14:02;;;;;;;8.13;6.63;;;21.10;99.90;;;;;;476704;249;29335;-71
2021/09/08 10:16:03;;;;;;;8.27;6.63;;;21.20;99.90;;;;;;476695;249;28918;-71
2021/09/08 10:18:05;;;;;;;7.60;6.80;;;21.20;99.90;;;;;;476687;249;28808;-71
2021/09/08 10:20:06;;;;;;;9.10;7.43;;;21.40;99.90;;;;;;476733;249;28808;-71
2021/09/08 10:22:07;;;;;;;7.90;6.77;;;21.50;99.90;;;;;;476697;249;28836;-71
2021/09/08 10:24:08;;;;;;;8.23;7.30;;;21.70;99.90;;;;;;476729;249;28890;-72
2021/09/08 10:26:10;;;;;;;8.90;7.47;;;21.70;99.90;;;;;;476746;249;29016;-72
2021/09/08 10:28:11;;;;;;;11.87;7.60;;;21.50;99.90;;;;;;476718;249;29181;-72
2021/09/08 10:30:12;;;;;;;8.70;6.67;;;21.70;99.90;;;;;;476740;249;28849;-70